createdAt,value
2019-03-31T00:01:07.301Z,133.22
2019-03-31T00:03:23.119Z,135.93
2019-03-31T00:05:49.887Z,147.30
2019-03-31T00:08:16.649Z,135.25
2019-03-31T00:10:43.353Z,140.60
2019-03-31T00:13:10.193Z,132.80
2019-03-31T00:15:37.024Z,129.03
2019-03-31T00:18:04.174Z,143.10
2019-03-31T00:20:33.959Z,141.75
2019-03-31T00:23:00.809Z,135.97
2019-03-31T00:25:27.618Z,139.88
2019-03-31T00:27:54.387Z,134.07
2019-03-31T00:30:21.485Z,141.73
2019-03-31T00:32:48.239Z,144.50
2019-03-31T00:35:15.037Z,145.25
2019-03-31T00:37:41.809Z,150.38
2019-03-31T00:40:10.525Z,151.05
2019-03-31T00:42:37.376Z,151.45
2019-03-31T00:45:05.829Z,152.02
2019-03-31T00:47:32.605Z,139.57
2019-03-31T00:49:59.555Z,147.13
2019-03-31T00:52:26.345Z,151.87
2019-03-31T00:54:53.093Z,155.60
2019-03-31T00:57:19.841Z,145.70
2019-03-31T00:59:46.841Z,146.53
2019-03-31T01:02:17.346Z,139.05
2019-03-31T01:04:44.086Z,149.72
2019-03-31T01:07:10.832Z,151.72
2019-03-31T01:09:37.824Z,148.93
2019-03-31T01:12:04.647Z,137.82
2019-03-31T01:14:31.411Z,149.20
2019-03-31T01:16:59.650Z,144.80
2019-03-31T01:19:28.529Z,139.07
2019-03-31T01:21:55.350Z,134.93
2019-03-31T01:24:22.707Z,139.82
2019-03-31T01:26:49.419Z,137.82
2019-03-31T01:29:16.292Z,148.05
2019-03-31T01:31:50.300Z,136.25
2019-03-31T01:34:15.339Z,137.22
2019-03-31T01:36:42.210Z,134.30
2019-03-31T01:39:08.959Z,132.87
2019-03-31T01:41:35.893Z,136.68
2019-03-31T01:44:02.792Z,127.05
2019-03-31T01:46:29.603Z,118.75
2019-03-31T01:48:56.338Z,120.55
2019-03-31T01:51:23.392Z,116.45
2019-03-31T01:53:50.287Z,116.20
2019-03-31T01:56:17.319Z,109.85
2019-03-31T01:58:44.252Z,116.42
2019-03-31T02:01:12.910Z,105.25
2019-03-31T02:03:39.950Z,107.10
2019-03-31T02:06:07.493Z,115.45
2019-03-31T02:08:34.300Z,110.40
2019-03-31T02:11:01.003Z,116.82
2019-03-31T02:13:27.897Z,109.20
2019-03-31T02:15:54.724Z,117.62
2019-03-31T02:18:21.437Z,118.37
2019-03-31T02:20:48.154Z,112.65
2019-03-31T02:23:15.202Z,116.08
2019-03-31T02:25:41.958Z,114.00
2019-03-31T02:28:08.745Z,108.45
2019-03-31T02:30:35.522Z,113.52
2019-03-31T02:33:02.455Z,103.87
2019-03-31T02:35:29.310Z,102.17
2019-03-31T02:37:56.191Z,98.17
2019-03-31T02:40:22.972Z,94.40
2019-03-31T02:42:49.753Z,95.85
2019-03-31T02:45:16.693Z,95.92
2019-03-31T02:47:43.486Z,103.55
2019-03-31T02:50:14.033Z,113.10
2019-03-31T02:52:40.928Z,112.05
2019-03-31T02:55:07.689Z,112.32
2019-03-31T02:57:34.645Z,109.63
2019-03-31T03:00:01.618Z,104.92
2019-03-31T03:02:41.353Z,105.85
2019-03-31T03:04:57.313Z,118.45
2019-03-31T03:07:24.221Z,115.97
2019-03-31T03:09:51.255Z,107.75
2019-03-31T03:12:17.989Z,117.47
2019-03-31T03:14:45.348Z,114.67
2019-03-31T03:17:12.344Z,119.45
2019-03-31T03:19:39.107Z,119.35
2019-03-31T03:22:05.818Z,125.07
2019-03-31T03:24:33.570Z,123.82
2019-03-31T03:27:00.351Z,118.10
2019-03-31T03:29:27.118Z,120.82
2019-03-31T03:31:53.957Z,126.70
2019-03-31T03:34:21.151Z,115.12
2019-03-31T03:36:47.894Z,122.20
2019-03-31T03:39:14.734Z,113.15
2019-03-31T03:41:41.991Z,113.77
2019-03-31T03:44:08.786Z,107.30
2019-03-31T03:46:35.635Z,116.97
2019-03-31T03:49:02.493Z,112.57
2019-03-31T03:51:29.527Z,104.20
2019-03-31T03:53:57.241Z,107.52
2019-03-31T03:56:28.715Z,104.90
2019-03-31T03:58:52.730Z,106.10
2019-03-31T04:01:20.002Z,108.03
2019-03-31T04:03:46.709Z,102.55
2019-03-31T04:06:13.797Z,108.27
2019-03-31T04:08:40.735Z,93.82
2019-03-31T04:11:08.626Z,109.92
2019-03-31T04:13:35.389Z,105.37
2019-03-31T04:16:02.176Z,92.92
2019-03-31T04:18:29.024Z,93.47
2019-03-31T04:20:57.851Z,99.77
2019-03-31T04:23:24.867Z,92.53
2019-03-31T04:25:52.657Z,99.50
2019-03-31T04:28:19.420Z,97.90
2019-03-31T04:30:46.522Z,95.55
2019-03-31T04:33:13.257Z,102.15
2019-03-31T04:35:40.019Z,98.42
2019-03-31T04:38:06.780Z,95.05
2019-03-31T04:40:33.778Z,93.55
2019-03-31T04:43:00.595Z,82.45
2019-03-31T04:45:27.363Z,83.15
2019-03-31T04:47:54.410Z,68.60
2019-03-31T04:50:21.173Z,69.97
2019-03-31T04:52:47.959Z,74.47
2019-03-31T04:55:14.723Z,80.42
2019-03-31T04:57:41.553Z,84.95
2019-03-31T05:00:08.311Z,79.85
2019-03-31T05:02:35.061Z,76.95
2019-03-31T05:05:01.811Z,75.20
2019-03-31T05:07:28.610Z,78.35
2019-03-31T05:09:55.470Z,79.22
2019-03-31T05:12:22.209Z,80.07
2019-03-31T05:14:48.930Z,72.05
2019-03-31T05:17:16.327Z,75.28
2019-03-31T05:19:43.046Z,84.13
2019-03-31T05:22:09.788Z,85.60
2019-03-31T05:24:37.308Z,85.92
2019-03-31T05:27:04.053Z,94.80
2019-03-31T05:29:30.817Z,93.15
2019-03-31T05:31:57.774Z,84.65
2019-03-31T05:34:24.815Z,63.17
2019-03-31T05:36:51.576Z,60.12
2019-03-31T05:39:18.600Z,52.43
2019-03-31T05:41:45.456Z,66.75
2019-03-31T05:44:12.246Z,69.03
2019-03-31T05:46:39.025Z,68.70
2019-03-31T05:49:05.751Z,66.92
2019-03-31T05:51:32.818Z,65.05
2019-03-31T05:53:59.577Z,69.77
2019-03-31T05:56:26.952Z,58.83
2019-03-31T05:58:54.551Z,50.60
2019-03-31T06:01:21.458Z,49.48
2019-03-31T06:03:48.261Z,49.80
2019-03-31T06:06:15.014Z,47.60
2019-03-31T06:08:41.763Z,47.27
2019-03-31T06:11:08.581Z,51.90
2019-03-31T06:13:35.367Z,43.58
2019-03-31T06:16:02.125Z,46.25
2019-03-31T06:18:28.846Z,46.83
2019-03-31T06:20:55.545Z,45.30
2019-03-31T06:23:22.332Z,47.98
2019-03-31T06:25:49.186Z,50.70
2019-03-31T06:28:15.941Z,54.10
2019-03-31T06:30:42.705Z,55.98
2019-03-31T06:33:09.595Z,57.83
2019-03-31T06:35:36.385Z,60.48
2019-03-31T06:38:03.085Z,62.25
2019-03-31T06:40:29.874Z,60.23
2019-03-31T06:42:56.832Z,62.88
2019-03-31T06:45:23.579Z,65.97
2019-03-31T06:47:50.510Z,62.53
2019-03-31T06:50:18.419Z,65.78
2019-03-31T06:52:45.114Z,65.83
2019-03-31T06:55:12.406Z,57.98
2019-03-31T06:57:39.195Z,54.18
2019-03-31T07:00:06.546Z,49.48
2019-03-31T07:02:33.669Z,49.55
2019-03-31T07:05:01.791Z,44.55
2019-03-31T07:07:28.779Z,47.08
2019-03-31T07:09:55.595Z,42.80
2019-03-31T07:12:22.339Z,42.38
2019-03-31T07:14:49.128Z,44.45
2019-03-31T07:17:15.850Z,42.17
2019-03-31T07:19:42.765Z,38.60
2019-03-31T07:22:09.488Z,43.00
2019-03-31T07:24:36.233Z,39.40
2019-03-31T07:27:02.977Z,40.52
2019-03-31T07:29:30.191Z,42.53
2019-03-31T07:31:56.964Z,78.22
2019-03-31T07:34:23.701Z,42.80
2019-03-31T07:36:50.445Z,40.08
2019-03-31T07:39:17.408Z,37.67
2019-03-31T07:41:44.244Z,37.90
2019-03-31T07:44:11.243Z,42.98
2019-03-31T07:46:38.175Z,42.65
2019-03-31T07:49:05.227Z,40.75
2019-03-31T07:51:31.966Z,43.52
2019-03-31T07:53:58.976Z,43.25
2019-03-31T07:56:25.711Z,39.65
2019-03-31T07:58:52.554Z,39.03
2019-03-31T08:01:19.445Z,41.68
2019-03-31T08:03:46.246Z,43.48
2019-03-31T08:06:13.540Z,38.35
2019-03-31T08:08:40.592Z,38.17
2019-03-31T08:11:07.435Z,40.63
2019-03-31T08:13:34.146Z,38.48
2019-03-31T08:16:00.958Z,43.28
2019-03-31T08:18:27.787Z,39.90
2019-03-31T08:20:54.617Z,39.70
2019-03-31T08:23:22.501Z,40.88
2019-03-31T08:25:49.724Z,43.00
2019-03-31T08:28:16.707Z,35.65
2019-03-31T08:30:43.451Z,36.80
2019-03-31T08:33:10.310Z,37.53
2019-03-31T08:35:47.254Z,37.13
2019-03-31T08:38:05.891Z,36.75
2019-03-31T08:40:32.646Z,35.50
2019-03-31T08:42:59.568Z,35.50
2019-03-31T08:45:26.404Z,35.95
2019-03-31T08:47:53.138Z,35.60
2019-03-31T08:50:20.398Z,35.55
2019-03-31T08:52:47.160Z,36.35
2019-03-31T08:55:13.940Z,34.65
2019-03-31T08:57:40.735Z,33.98
2019-03-31T09:00:11.723Z,36.75
2019-03-31T09:02:38.482Z,32.08
2019-03-31T09:05:09.033Z,36.10
2019-03-31T09:07:35.912Z,36.30
2019-03-31T09:10:05.140Z,32.35
2019-03-31T09:14:58.941Z,36.00
2019-03-31T09:17:25.679Z,33.28
2019-03-31T09:19:52.459Z,38.20
2019-03-31T09:22:19.198Z,37.23
2019-03-31T09:24:46.216Z,38.95
2019-03-31T09:27:12.980Z,33.70
2019-03-31T09:29:39.735Z,31.50
2019-03-31T09:32:06.556Z,32.08
2019-03-31T09:34:33.358Z,39.63
2019-03-31T09:37:00.170Z,36.60
2019-03-31T09:39:26.895Z,32.50
2019-03-31T09:41:53.861Z,36.65
2019-03-31T09:44:20.729Z,31.15
2019-03-31T09:46:47.521Z,37.67
2019-03-31T09:49:14.297Z,33.45
2019-03-31T09:51:41.191Z,30.10
2019-03-31T09:54:07.986Z,31.93
2019-03-31T09:56:34.724Z,31.12
2019-03-31T09:59:01.511Z,30.23
2019-03-31T10:01:28.257Z,31.00
2019-03-31T10:03:55.027Z,31.17
2019-03-31T10:06:30.173Z,33.45
2019-03-31T10:08:51.134Z,33.15
2019-03-31T10:11:17.905Z,33.40
2019-03-31T10:13:44.623Z,28.75
2019-03-31T10:16:11.544Z,31.65
2019-03-31T10:18:40.186Z,37.00
2019-03-31T10:21:07.074Z,30.40
2019-03-31T10:23:33.818Z,29.63
2019-03-31T10:26:00.574Z,29.65
2019-03-31T10:28:27.364Z,27.87
2019-03-31T10:30:54.155Z,29.40
2019-03-31T10:33:21.066Z,29.00
2019-03-31T10:35:47.852Z,32.70
2019-03-31T10:38:14.589Z,37.15
2019-03-31T10:40:41.716Z,26.02
2019-03-31T10:43:08.768Z,24.87
2019-03-31T10:45:35.533Z,27.65
2019-03-31T10:48:02.502Z,26.20
2019-03-31T10:50:29.343Z,28.25
2019-03-31T10:52:56.045Z,26.95
2019-03-31T10:55:22.850Z,30.65
2019-03-31T10:57:49.644Z,29.25
2019-03-31T11:00:20.219Z,29.05
2019-03-31T11:02:47.081Z,31.07
2019-03-31T11:05:13.889Z,26.73
2019-03-31T11:07:40.699Z,28.50
2019-03-31T11:10:07.498Z,21.70
2019-03-31T11:12:34.274Z,21.37
2019-03-31T11:15:01.016Z,24.70
2019-03-31T11:17:27.773Z,21.55
2019-03-31T11:19:54.701Z,29.70
2019-03-31T11:22:26.329Z,48.90
2019-03-31T11:24:53.104Z,21.50
2019-03-31T11:27:19.879Z,23.07
2019-03-31T11:29:46.646Z,20.62
2019-03-31T11:32:13.492Z,18.50
2019-03-31T11:34:40.286Z,20.52
2019-03-31T11:37:13.572Z,20.43
2019-03-31T11:39:35.639Z,17.62
2019-03-31T11:42:02.699Z,18.62
2019-03-31T11:44:29.507Z,13.18
2019-03-31T11:46:56.346Z,15.05
2019-03-31T11:49:23.332Z,15.88
2019-03-31T11:51:50.175Z,14.80
2019-03-31T11:54:17.007Z,15.75
2019-03-31T11:56:43.759Z,16.37
2019-03-31T11:59:10.720Z,15.53
2019-03-31T12:01:37.471Z,15.18
2019-03-31T12:04:04.162Z,11.78
2019-03-31T12:06:30.883Z,16.05
2019-03-31T12:08:57.837Z,15.53
2019-03-31T12:11:24.652Z,12.30
2019-03-31T12:13:51.411Z,15.25
2019-03-31T12:16:18.218Z,12.80
2019-03-31T12:18:45.114Z,13.03
2019-03-31T12:21:11.827Z,12.18
2019-03-31T12:23:38.835Z,14.93
2019-03-31T12:26:05.600Z,13.13
2019-03-31T12:28:32.460Z,10.65
2019-03-31T12:30:59.196Z,16.57
2019-03-31T12:33:25.970Z,17.12
2019-03-31T12:35:52.970Z,17.55
2019-03-31T12:38:19.759Z,21.50
2019-03-31T12:40:46.482Z,16.67
2019-03-31T12:43:13.240Z,15.38
2019-03-31T12:45:42.929Z,17.27
2019-03-31T12:48:09.640Z,13.88
2019-03-31T12:50:36.369Z,14.47
2019-03-31T12:53:03.286Z,15.60
2019-03-31T12:55:30.398Z,15.23
2019-03-31T12:57:57.164Z,19.15
2019-03-31T13:00:23.921Z,16.32
2019-03-31T13:02:50.783Z,17.48
2019-03-31T13:05:17.611Z,18.85
2019-03-31T13:07:55.733Z,16.42
2019-03-31T13:10:13.342Z,20.12
2019-03-31T13:12:40.165Z,15.90
2019-03-31T13:15:06.958Z,18.35
2019-03-31T13:17:33.710Z,20.02
2019-03-31T13:20:01.075Z,17.27
2019-03-31T13:22:27.777Z,16.82
2019-03-31T13:24:54.577Z,13.83
2019-03-31T13:27:21.609Z,14.60
2019-03-31T13:29:48.391Z,16.52
2019-03-31T13:32:15.170Z,16.17
2019-03-31T13:34:42.874Z,21.30
2019-03-31T13:37:09.785Z,17.42
2019-03-31T13:39:36.553Z,19.25
2019-03-31T13:42:03.453Z,16.77
2019-03-31T13:44:30.250Z,18.07
2019-03-31T13:46:56.996Z,22.90
2019-03-31T13:49:24.330Z,25.88
2019-03-31T13:51:51.045Z,16.82
2019-03-31T13:54:17.764Z,15.75
2019-03-31T13:56:47.661Z,15.35
2019-03-31T13:59:13.332Z,15.83
2019-03-31T14:01:40.118Z,14.43
2019-03-31T14:04:06.821Z,14.78
2019-03-31T14:06:35.226Z,14.20
2019-03-31T14:09:03.596Z,14.85
2019-03-31T14:11:30.626Z,18.42
2019-03-31T14:13:57.405Z,18.12
2019-03-31T14:16:24.352Z,19.52
2019-03-31T14:18:51.410Z,18.67
2019-03-31T14:21:18.170Z,17.52
2019-03-31T14:23:44.946Z,17.25
2019-03-31T14:26:11.636Z,19.50
2019-03-31T14:28:38.899Z,20.48
2019-03-31T14:31:05.708Z,20.27
2019-03-31T14:33:32.535Z,19.98
2019-03-31T14:35:59.608Z,15.80
2019-03-31T14:38:39.587Z,16.12
2019-03-31T14:40:55.042Z,15.25
2019-03-31T14:43:21.860Z,14.43
2019-03-31T14:45:48.646Z,16.05
2019-03-31T14:48:15.457Z,15.55
2019-03-31T14:50:42.213Z,13.95
2019-03-31T14:53:08.949Z,39.50
2019-03-31T14:55:35.941Z,17.05
2019-03-31T14:58:02.864Z,16.35
2019-03-31T15:00:29.772Z,16.57
2019-03-31T15:02:56.563Z,15.03
2019-03-31T15:05:23.370Z,15.32
2019-03-31T15:07:50.370Z,14.87
2019-03-31T15:10:17.267Z,14.13
2019-03-31T15:12:44.041Z,11.25
2019-03-31T15:15:10.990Z,10.98
2019-03-31T15:17:38.097Z,13.45
2019-03-31T15:20:04.867Z,10.00
2019-03-31T15:22:31.716Z,12.58
2019-03-31T15:24:58.654Z,11.70
2019-03-31T15:27:25.603Z,12.65
2019-03-31T15:29:52.493Z,11.53
2019-03-31T15:32:19.354Z,11.35
2019-03-31T15:34:46.223Z,12.20
2019-03-31T15:37:13.165Z,13.40
2019-03-31T15:39:40.032Z,15.85
2019-03-31T15:42:06.907Z,18.40
2019-03-31T15:44:33.804Z,18.92
2019-03-31T15:47:00.745Z,17.48
2019-03-31T15:49:27.570Z,15.68
2019-03-31T15:51:54.376Z,15.30
2019-03-31T15:54:21.376Z,16.45
2019-03-31T15:56:48.221Z,15.78
2019-03-31T15:59:14.915Z,15.55
2019-03-31T16:01:41.837Z,19.07
2019-03-31T16:04:09.661Z,14.87
2019-03-31T16:06:36.690Z,17.12
2019-03-31T16:09:05.720Z,12.82
2019-03-31T16:11:32.470Z,15.50
2019-03-31T16:13:59.348Z,15.45
2019-03-31T16:16:26.242Z,13.05
2019-03-31T16:18:53.018Z,11.50
2019-03-31T16:21:19.772Z,12.80
2019-03-31T16:23:46.667Z,15.35
2019-03-31T16:26:13.528Z,13.10
2019-03-31T16:28:40.312Z,11.22
2019-03-31T16:31:07.095Z,13.45
2019-03-31T16:33:33.970Z,10.15
2019-03-31T16:36:00.906Z,14.43
2019-03-31T16:38:27.616Z,13.35
2019-03-31T16:40:54.662Z,16.67
2019-03-31T16:43:21.433Z,15.55
2019-03-31T16:45:48.314Z,13.65
2019-03-31T16:48:15.091Z,13.98
2019-03-31T16:50:41.937Z,13.72
2019-03-31T16:53:08.738Z,14.13
2019-03-31T16:55:35.445Z,15.70
2019-03-31T16:58:02.256Z,15.03
2019-03-31T17:00:29.061Z,15.95
2019-03-31T17:02:57.657Z,14.80
2019-03-31T17:05:24.483Z,18.90
2019-03-31T17:07:51.621Z,18.27
2019-03-31T17:10:18.359Z,16.17
2019-03-31T17:12:45.141Z,17.40
2019-03-31T17:15:12.691Z,17.75
2019-03-31T17:17:39.597Z,16.93
2019-03-31T17:20:06.323Z,18.35
2019-03-31T17:22:33.303Z,18.82
2019-03-31T17:25:00.043Z,20.90
2019-03-31T17:27:27.715Z,21.75
2019-03-31T17:29:54.661Z,23.00
2019-03-31T17:32:21.485Z,24.02
2019-03-31T17:34:48.394Z,23.42
2019-03-31T17:37:15.163Z,23.67
2019-03-31T17:39:41.952Z,27.60
2019-03-31T17:42:08.833Z,23.70
2019-03-31T17:44:35.611Z,29.67
2019-03-31T17:47:02.440Z,26.62
2019-03-31T17:49:29.621Z,27.30
2019-03-31T17:51:56.426Z,27.02
2019-03-31T17:54:23.202Z,27.73
2019-03-31T17:56:49.915Z,30.02
2019-03-31T17:59:16.755Z,29.52
2019-03-31T18:01:43.604Z,34.70
2019-03-31T18:04:10.398Z,28.38
2019-03-31T18:06:37.571Z,31.45
2019-03-31T18:09:07.061Z,32.13
2019-03-31T18:11:34.075Z,28.67
2019-03-31T18:14:00.874Z,34.70
2019-03-31T18:16:27.705Z,31.42
2019-03-31T18:18:54.435Z,31.68
2019-03-31T18:21:21.336Z,34.90
2019-03-31T18:23:48.083Z,36.20
2019-03-31T18:26:14.840Z,34.88
2019-03-31T18:28:43.764Z,36.50
2019-03-31T18:31:10.396Z,35.58
2019-03-31T18:33:37.189Z,33.63
2019-03-31T18:36:03.979Z,36.25
2019-03-31T18:38:30.958Z,38.33
2019-03-31T18:40:58.097Z,34.70
2019-03-31T18:43:24.969Z,40.75
2019-03-31T18:45:51.889Z,36.23
2019-03-31T18:48:18.761Z,36.70
2019-03-31T18:50:45.592Z,36.45
2019-03-31T18:53:14.261Z,39.75
2019-03-31T18:55:43.425Z,35.08
2019-03-31T18:58:21.323Z,36.73
2019-03-31T19:00:53.092Z,36.38
2019-03-31T19:03:38.212Z,38.20
2019-03-31T19:06:19.220Z,36.68
2019-03-31T19:08:47.843Z,39.45
2019-03-31T19:11:16.582Z,36.77
2019-03-31T19:14:03.723Z,36.13
2019-03-31T19:16:35.117Z,35.28
2019-03-31T19:19:17.853Z,36.88
2019-03-31T19:21:47.060Z,30.75
2019-03-31T19:24:18.583Z,33.00
2019-03-31T19:27:04.002Z,35.88
2019-03-31T19:29:49.396Z,28.30
2019-03-31T19:32:21.401Z,33.95
2019-03-31T19:35:08.457Z,29.92
2019-03-31T19:37:43.229Z,28.55
2019-03-31T19:40:12.425Z,31.35
2019-03-31T19:42:56.184Z,25.12
2019-03-31T19:45:27.835Z,27.40
2019-03-31T19:47:59.704Z,28.05
2019-03-31T19:50:44.892Z,29.45
2019-03-31T19:53:30.410Z,29.18
2019-03-31T19:56:07.808Z,30.12
2019-03-31T19:58:32.925Z,30.88
2019-03-31T20:01:04.643Z,29.18
2019-03-31T20:03:39.815Z,28.50
2019-03-31T20:06:20.678Z,31.75
2019-03-31T20:08:55.487Z,29.48
2019-03-31T20:11:33.049Z,31.42
2019-03-31T20:14:10.888Z,34.55
2019-03-31T20:16:45.452Z,33.48
2019-03-31T20:19:16.964Z,34.15
2019-03-31T20:22:02.429Z,29.50
2019-03-31T20:24:31.392Z,32.83
2019-03-31T20:27:18.439Z,30.37
2019-03-31T20:29:56.197Z,30.57
2019-03-31T20:32:34.134Z,31.27
2019-03-31T20:35:10.246Z,30.90
2019-03-31T20:37:41.887Z,33.85
2019-03-31T20:40:16.794Z,32.25
2019-03-31T20:42:48.448Z,30.02
2019-03-31T20:45:15.261Z,33.00
2019-03-31T20:47:42.174Z,32.35
2019-03-31T20:50:08.973Z,32.58
2019-03-31T20:52:35.961Z,36.25
2019-03-31T20:55:15.683Z,31.15
2019-03-31T20:57:32.279Z,31.65
2019-03-31T20:59:59.066Z,31.70
2019-03-31T21:02:25.849Z,30.48
2019-03-31T21:04:52.712Z,33.10
2019-03-31T21:07:19.598Z,27.60
2019-03-31T21:09:46.368Z,33.88
2019-03-31T21:12:13.226Z,29.87
2019-03-31T21:14:39.978Z,28.73
2019-03-31T21:17:06.791Z,30.27
2019-03-31T21:19:33.547Z,28.62
2019-03-31T21:22:00.313Z,29.95
2019-03-31T21:24:27.143Z,30.37
2019-03-31T21:26:53.914Z,32.88
2019-03-31T21:29:20.944Z,34.48
2019-03-31T21:31:47.888Z,30.92
2019-03-31T21:34:14.764Z,33.63
2019-03-31T21:36:41.537Z,29.30
2019-03-31T21:39:08.306Z,27.95
2019-03-31T21:41:35.056Z,32.25
2019-03-31T21:44:02.001Z,30.48
2019-03-31T21:46:28.780Z,28.87
2019-03-31T21:48:55.502Z,29.18
2019-03-31T21:51:22.398Z,31.23
2019-03-31T21:53:49.860Z,30.17
2019-03-31T21:56:16.702Z,28.30
2019-03-31T21:58:43.409Z,28.05
2019-03-31T22:01:10.392Z,27.70
2019-03-31T22:03:37.422Z,28.55
2019-03-31T22:06:04.217Z,28.47
2019-03-31T22:08:31.032Z,31.30
2019-03-31T22:10:57.986Z,30.30
2019-03-31T22:13:24.903Z,29.02
2019-03-31T22:15:51.667Z,30.80
2019-03-31T22:18:18.404Z,26.82
2019-03-31T22:20:47.282Z,26.75
2019-03-31T22:23:13.968Z,26.65
2019-03-31T22:25:40.745Z,27.13
2019-03-31T22:28:07.588Z,27.13
2019-03-31T22:30:35.118Z,36.60
2019-03-31T22:33:01.888Z,26.93
2019-03-31T22:35:28.608Z,32.42
2019-03-31T22:37:55.463Z,26.37
2019-03-31T22:40:22.324Z,29.07
2019-03-31T22:42:49.083Z,27.27
2019-03-31T22:45:15.815Z,27.07
2019-03-31T22:47:42.630Z,29.15
2019-03-31T22:50:09.499Z,28.40
2019-03-31T22:52:36.311Z,26.20
2019-03-31T22:55:05.073Z,22.98
2019-03-31T22:57:31.779Z,25.57
2019-03-31T22:59:58.563Z,26.17
2019-03-31T23:02:25.350Z,23.83
2019-03-31T23:04:52.106Z,26.00
2019-03-31T23:07:18.859Z,24.18
2019-03-31T23:09:45.583Z,28.67
2019-03-31T23:12:13.034Z,23.10
2019-03-31T23:14:39.767Z,22.82
2019-03-31T23:17:06.512Z,26.60
2019-03-31T23:19:33.489Z,26.77
2019-03-31T23:22:00.259Z,20.92
2019-03-31T23:24:27.024Z,25.25
2019-03-31T23:26:54.172Z,22.10
2019-03-31T23:29:20.895Z,19.57
2019-03-31T23:31:47.632Z,19.85
2019-03-31T23:34:14.404Z,21.68
2019-03-31T23:36:41.178Z,20.08
2019-03-31T23:39:08.024Z,19.60
2019-03-31T23:41:34.802Z,25.05
2019-03-31T23:44:01.535Z,19.67
2019-03-31T23:46:28.341Z,21.07
2019-03-31T23:48:55.140Z,22.87
2019-03-31T23:51:21.909Z,20.20
2019-03-31T23:53:48.689Z,16.82
2019-03-31T23:56:15.507Z,15.48
2019-03-31T23:58:42.317Z,17.12
